sensor_id;sensor_type;location;lat;lon;timestamp;P1;durP1;ratioP1;P2;durP2;ratioP2
46084;SDS011;31823;47.032;8.310;2023-08-24T00:01:26;10.93;;;6.78;;
46084;SDS011;31823;47.032;8.310;2023-08-24T00:03:52;8.65;;;6.55;;
46084;SDS011;31823;47.032;8.310;2023-08-24T00:06:17;8.98;;;6.80;;
46084;SDS011;31823;47.032;8.310;2023-08-24T00:08:43;9.45;;;6.75;;
46084;SDS011;31823;47.032;8.310;2023-08-24T00:11:09;7.70;;;6.32;;
46084;SDS011;31823;47.032;8.310;2023-08-24T00:13:39;10.15;;;6.18;;
46084;SDS011;31823;47.032;8.310;2023-08-24T00:16:06;13.77;;;7.22;;
46084;SDS011;31823;47.032;8.310;2023-08-24T00:18:32;11.98;;;7.00;;
46084;SDS011;31823;47.032;8.310;2023-08-24T00:20:58;9.13;;;6.75;;
46084;SDS011;31823;47.032;8.310;2023-08-24T00:23:24;14.75;;;6.93;;
46084;SDS011;31823;47.032;8.310;2023-08-24T00:25:50;9.07;;;7.38;;
46084;SDS011;31823;47.032;8.310;2023-08-24T00:28:15;9.90;;;6.53;;
46084;SDS011;31823;47.032;8.310;2023-08-24T00:30:41;14.73;;;7.25;;
46084;SDS011;31823;47.032;8.310;2023-08-24T00:33:07;9.60;;;6.68;;
46084;SDS011;31823;47.032;8.310;2023-08-24T00:35:32;10.40;;;6.93;;
46084;SDS011;31823;47.032;8.310;2023-08-24T00:37:58;8.80;;;7.22;;
46084;SDS011;31823;47.032;8.310;2023-08-24T00:40:23;10.63;;;7.53;;
46084;SDS011;31823;47.032;8.310;2023-08-24T00:42:50;9.18;;;7.35;;
46084;SDS011;31823;47.032;8.310;2023-08-24T00:45:15;13.68;;;7.93;;
46084;SDS011;31823;47.032;8.310;2023-08-24T00:47:42;9.60;;;7.38;;
46084;SDS011;31823;47.032;8.310;2023-08-24T00:50:10;10.63;;;7.22;;
46084;SDS011;31823;47.032;8.310;2023-08-24T00:52:36;12.23;;;7.88;;
46084;SDS011;31823;47.032;8.310;2023-08-24T00:55:04;13.73;;;7.32;;
46084;SDS011;31823;47.032;8.310;2023-08-24T00:57:30;11.13;;;7.75;;
46084;SDS011;31823;47.032;8.310;2023-08-24T00:59:56;14.75;;;6.93;;
46084;SDS011;31823;47.032;8.310;2023-08-24T01:02:24;7.65;;;6.20;;
46084;SDS011;31823;47.032;8.310;2023-08-24T01:04:50;16.42;;;6.43;;
46084;SDS011;31823;47.032;8.310;2023-08-24T01:07:16;9.10;;;6.43;;
46084;SDS011;31823;47.032;8.310;2023-08-24T01:09:42;7.03;;;5.97;;
46084;SDS011;31823;47.032;8.310;2023-08-24T01:18:10;13.02;;;6.72;;
46084;SDS011;31823;47.032;8.310;2023-08-24T01:20:40;10.57;;;6.57;;
46084;SDS011;31823;47.032;8.310;2023-08-24T01:23:09;11.95;;;7.03;;
46084;SDS011;31823;47.032;8.310;2023-08-24T01:28:19;17.20;;;7.05;;
46084;SDS011;31823;47.032;8.310;2023-08-24T01:30:46;11.65;;;7.00;;
46084;SDS011;31823;47.032;8.310;2023-08-24T01:33:12;13.05;;;6.88;;
46084;SDS011;31823;47.032;8.310;2023-08-24T01:35:38;17.13;;;7.32;;
46084;SDS011;31823;47.032;8.310;2023-08-24T01:38:04;9.77;;;5.85;;
46084;SDS011;31823;47.032;8.310;2023-08-24T01:40:36;14.25;;;6.70;;
46084;SDS011;31823;47.032;8.310;2023-08-24T01:43:09;11.88;;;6.22;;
46084;SDS011;31823;47.032;8.310;2023-08-24T01:45:38;11.82;;;6.47;;
46084;SDS011;31823;47.032;8.310;2023-08-24T01:48:06;12.02;;;6.00;;
46084;SDS011;31823;47.032;8.310;2023-08-24T01:50:34;12.73;;;5.68;;
46084;SDS011;31823;47.032;8.310;2023-08-24T01:53:00;8.95;;;6.22;;
46084;SDS011;31823;47.032;8.310;2023-08-24T01:55:26;11.20;;;6.35;;
46084;SDS011;31823;47.032;8.310;2023-08-24T01:57:55;17.35;;;6.72;;
46084;SDS011;31823;47.032;8.310;2023-08-24T02:00:20;10.18;;;5.72;;
46084;SDS011;31823;47.032;8.310;2023-08-24T02:02:46;10.45;;;6.60;;
46084;SDS011;31823;47.032;8.310;2023-08-24T02:05:11;8.48;;;5.40;;
46084;SDS011;31823;47.032;8.310;2023-08-24T02:07:38;11.43;;;6.93;;
46084;SDS011;31823;47.032;8.310;2023-08-24T02:10:05;7.43;;;5.72;;
46084;SDS011;31823;47.032;8.310;2023-08-24T02:12:31;14.43;;;6.93;;
46084;SDS011;31823;47.032;8.310;2023-08-24T02:14:56;10.00;;;6.65;;
46084;SDS011;31823;47.032;8.310;2023-08-24T02:17:22;14.85;;;7.78;;
46084;SDS011;31823;47.032;8.310;2023-08-24T02:19:48;14.02;;;6.95;;
46084;SDS011;31823;47.032;8.310;2023-08-24T02:22:14;11.60;;;7.32;;
46084;SDS011;31823;47.032;8.310;2023-08-24T02:24:40;13.48;;;7.15;;
46084;SDS011;31823;47.032;8.310;2023-08-24T02:27:05;11.80;;;7.28;;
46084;SDS011;31823;47.032;8.310;2023-08-24T02:29:31;8.95;;;6.25;;
46084;SDS011;31823;47.032;8.310;2023-08-24T02:31:56;10.93;;;6.70;;
46084;SDS011;31823;47.032;8.310;2023-08-24T02:34:22;9.35;;;6.63;;
46084;SDS011;31823;47.032;8.310;2023-08-24T02:36:47;10.00;;;7.05;;
46084;SDS011;31823;47.032;8.310;2023-08-24T02:39:13;15.15;;;8.05;;
46084;SDS011;31823;47.032;8.310;2023-08-24T02:41:38;8.15;;;7.15;;
46084;SDS011;31823;47.032;8.310;2023-08-24T02:44:04;8.70;;;7.00;;
46084;SDS011;31823;47.032;8.310;2023-08-24T02:46:30;12.52;;;7.63;;
46084;SDS011;31823;47.032;8.310;2023-08-24T02:48:55;13.75;;;7.22;;
46084;SDS011;31823;47.032;8.310;2023-08-24T02:51:21;11.15;;;7.13;;
46084;SDS011;31823;47.032;8.310;2023-08-24T02:53:47;10.60;;;7.28;;
46084;SDS011;31823;47.032;8.310;2023-08-24T02:56:13;10.35;;;6.80;;
46084;SDS011;31823;47.032;8.310;2023-08-24T02:58:39;9.77;;;7.28;;
46084;SDS011;31823;47.032;8.310;2023-08-24T03:01:07;11.93;;;8.23;;
46084;SDS011;31823;47.032;8.310;2023-08-24T03:03:33;7.70;;;6.90;;
46084;SDS011;31823;47.032;8.310;2023-08-24T03:06:04;10.05;;;7.57;;
46084;SDS011;31823;47.032;8.310;2023-08-24T03:08:31;11.18;;;6.90;;
46084;SDS011;31823;47.032;8.310;2023-08-24T03:10:58;9.88;;;7.45;;
46084;SDS011;31823;47.032;8.310;2023-08-24T03:13:24;8.32;;;6.80;;
46084;SDS011;31823;47.032;8.310;2023-08-24T03:15:50;14.05;;;8.30;;
46084;SDS011;31823;47.032;8.310;2023-08-24T03:18:17;11.70;;;7.53;;
46084;SDS011;31823;47.032;8.310;2023-08-24T03:20:46;10.88;;;7.13;;
46084;SDS011;31823;47.032;8.310;2023-08-24T03:23:13;11.85;;;6.90;;
46084;SDS011;31823;47.032;8.310;2023-08-24T03:25:42;9.32;;;7.00;;
46084;SDS011;31823;47.032;8.310;2023-08-24T03:28:08;12.60;;;7.05;;
46084;SDS011;31823;47.032;8.310;2023-08-24T03:30:35;11.60;;;7.32;;
46084;SDS011;31823;47.032;8.310;2023-08-24T03:33:01;11.02;;;7.45;;
46084;SDS011;31823;47.032;8.310;2023-08-24T03:35:28;11.18;;;7.20;;
46084;SDS011;31823;47.032;8.310;2023-08-24T03:37:54;10.95;;;7.68;;
46084;SDS011;31823;47.032;8.310;2023-08-24T03:40:20;12.75;;;7.95;;
46084;SDS011;31823;47.032;8.310;2023-08-24T03:42:46;12.18;;;8.38;;
46084;SDS011;31823;47.032;8.310;2023-08-24T03:45:11;13.77;;;8.10;;
46084;SDS011;31823;47.032;8.310;2023-08-24T03:47:37;12.45;;;8.10;;
46084;SDS011;31823;47.032;8.310;2023-08-24T03:50:02;15.60;;;8.25;;
46084;SDS011;31823;47.032;8.310;2023-08-24T03:52:28;14.35;;;8.27;;
46084;SDS011;31823;47.032;8.310;2023-08-24T03:54:54;12.02;;;8.30;;
46084;SDS011;31823;47.032;8.310;2023-08-24T03:57:19;11.65;;;8.02;;
46084;SDS011;31823;47.032;8.310;2023-08-24T03:59:45;19.20;;;8.80;;
46084;SDS011;31823;47.032;8.310;2023-08-24T04:02:11;12.70;;;8.35;;
46084;SDS011;31823;47.032;8.310;2023-08-24T04:04:36;13.38;;;7.75;;
46084;SDS011;31823;47.032;8.310;2023-08-24T04:07:02;14.90;;;7.30;;
46084;SDS011;31823;47.032;8.310;2023-08-24T04:09:28;10.63;;;7.13;;
46084;SDS011;31823;47.032;8.310;2023-08-24T04:11:54;15.75;;;7.13;;
46084;SDS011;31823;47.032;8.310;2023-08-24T04:14:19;10.90;;;6.70;;
46084;SDS011;31823;47.032;8.310;2023-08-24T04:16:45;14.32;;;7.10;;
46084;SDS011;31823;47.032;8.310;2023-08-24T04:19:11;13.73;;;7.60;;
46084;SDS011;31823;47.032;8.310;2023-08-24T04:21:36;12.77;;;7.10;;
46084;SDS011;31823;47.032;8.310;2023-08-24T04:24:02;13.35;;;7.55;;
46084;SDS011;31823;47.032;8.310;2023-08-24T04:26:27;13.90;;;7.82;;
46084;SDS011;31823;47.032;8.310;2023-08-24T04:28:53;15.98;;;8.40;;
46084;SDS011;31823;47.032;8.310;2023-08-24T04:31:18;16.20;;;8.35;;
46084;SDS011;31823;47.032;8.310;2023-08-24T04:33:45;19.55;;;8.07;;
46084;SDS011;31823;47.032;8.310;2023-08-24T04:36:10;12.48;;;8.63;;
46084;SDS011;31823;47.032;8.310;2023-08-24T04:38:36;14.45;;;8.15;;
46084;SDS011;31823;47.032;8.310;2023-08-24T04:41:02;12.23;;;7.97;;
46084;SDS011;31823;47.032;8.310;2023-08-24T04:43:32;15.77;;;7.65;;
46084;SDS011;31823;47.032;8.310;2023-08-24T04:45:58;12.35;;;8.02;;
46084;SDS011;31823;47.032;8.310;2023-08-24T04:48:24;10.65;;;7.68;;
46084;SDS011;31823;47.032;8.310;2023-08-24T04:50:51;13.68;;;8.43;;
46084;SDS011;31823;47.032;8.310;2023-08-24T04:53:21;11.63;;;7.82;;
46084;SDS011;31823;47.032;8.310;2023-08-24T04:55:46;10.55;;;7.80;;
46084;SDS011;31823;47.032;8.310;2023-08-24T04:58:12;12.70;;;7.93;;
46084;SDS011;31823;47.032;8.310;2023-08-24T05:00:38;13.43;;;8.20;;
46084;SDS011;31823;47.032;8.310;2023-08-24T05:03:05;13.90;;;8.40;;
46084;SDS011;31823;47.032;8.310;2023-08-24T05:05:32;15.38;;;8.10;;
46084;SDS011;31823;47.032;8.310;2023-08-24T05:07:58;12.25;;;8.25;;
46084;SDS011;31823;47.032;8.310;2023-08-24T05:10:25;14.73;;;7.88;;
46084;SDS011;31823;47.032;8.310;2023-08-24T05:12:54;13.63;;;7.38;;
46084;SDS011;31823;47.032;8.310;2023-08-24T05:15:20;13.90;;;7.90;;
46084;SDS011;31823;47.032;8.310;2023-08-24T05:17:45;11.32;;;7.85;;
46084;SDS011;31823;47.032;8.310;2023-08-24T05:20:11;14.30;;;7.35;;
46084;SDS011;31823;47.032;8.310;2023-08-24T05:22:37;12.15;;;7.22;;
46084;SDS011;31823;47.032;8.310;2023-08-24T05:25:03;14.40;;;7.70;;
46084;SDS011;31823;47.032;8.310;2023-08-24T05:27:29;14.05;;;7.90;;
46084;SDS011;31823;47.032;8.310;2023-08-24T05:29:55;16.77;;;8.15;;
46084;SDS011;31823;47.032;8.310;2023-08-24T05:32:21;17.83;;;8.30;;
46084;SDS011;31823;47.032;8.310;2023-08-24T05:34:46;14.63;;;7.80;;
46084;SDS011;31823;47.032;8.310;2023-08-24T05:37:12;11.90;;;7.47;;
46084;SDS011;31823;47.032;8.310;2023-08-24T05:39:37;9.23;;;7.25;;
46084;SDS011;31823;47.032;8.310;2023-08-24T05:42:03;13.45;;;7.20;;
46084;SDS011;31823;47.032;8.310;2023-08-24T05:44:29;14.73;;;7.50;;
46084;SDS011;31823;47.032;8.310;2023-08-24T05:46:55;16.00;;;8.43;;
46084;SDS011;31823;47.032;8.310;2023-08-24T05:49:20;17.40;;;7.88;;
46084;SDS011;31823;47.032;8.310;2023-08-24T05:51:46;18.17;;;7.07;;
46084;SDS011;31823;47.032;8.310;2023-08-24T05:54:15;10.27;;;7.68;;
46084;SDS011;31823;47.032;8.310;2023-08-24T05:56:43;11.32;;;7.53;;
46084;SDS011;31823;47.032;8.310;2023-08-24T05:59:09;17.80;;;7.22;;
46084;SDS011;31823;47.032;8.310;2023-08-24T06:01:34;13.48;;;7.28;;
46084;SDS011;31823;47.032;8.310;2023-08-24T06:04:03;13.50;;;7.68;;
46084;SDS011;31823;47.032;8.310;2023-08-24T06:06:29;13.07;;;7.80;;
46084;SDS011;31823;47.032;8.310;2023-08-24T06:08:55;13.68;;;8.23;;
46084;SDS011;31823;47.032;8.310;2023-08-24T06:11:20;12.50;;;7.68;;
46084;SDS011;31823;47.032;8.310;2023-08-24T06:13:46;10.70;;;8.10;;
46084;SDS011;31823;47.032;8.310;2023-08-24T06:16:11;11.40;;;8.05;;
46084;SDS011;31823;47.032;8.310;2023-08-24T06:18:37;16.55;;;8.05;;
46084;SDS011;31823;47.032;8.310;2023-08-24T06:21:02;18.52;;;8.65;;
46084;SDS011;31823;47.032;8.310;2023-08-24T06:23:28;17.63;;;8.48;;
46084;SDS011;31823;47.032;8.310;2023-08-24T06:25:54;13.70;;;8.48;;
46084;SDS011;31823;47.032;8.310;2023-08-24T06:28:19;11.82;;;8.48;;
46084;SDS011;31823;47.032;8.310;2023-08-24T06:30:45;12.05;;;8.60;;
46084;SDS011;31823;47.032;8.310;2023-08-24T06:33:12;13.57;;;9.45;;
46084;SDS011;31823;47.032;8.310;2023-08-24T06:35:37;12.35;;;8.95;;
46084;SDS011;31823;47.032;8.310;2023-08-24T06:38:03;12.48;;;8.32;;
46084;SDS011;31823;47.032;8.310;2023-08-24T06:40:29;20.55;;;9.52;;
46084;SDS011;31823;47.032;8.310;2023-08-24T06:42:58;12.75;;;8.63;;
46084;SDS011;31823;47.032;8.310;2023-08-24T06:45:24;14.38;;;8.57;;
46084;SDS011;31823;47.032;8.310;2023-08-24T06:47:49;13.57;;;8.63;;
46084;SDS011;31823;47.032;8.310;2023-08-24T06:50:16;16.65;;;8.85;;
46084;SDS011;31823;47.032;8.310;2023-08-24T06:52:44;14.00;;;8.75;;
46084;SDS011;31823;47.032;8.310;2023-08-24T06:55:09;11.40;;;8.50;;
46084;SDS011;31823;47.032;8.310;2023-08-24T06:57:35;14.68;;;8.60;;
46084;SDS011;31823;47.032;8.310;2023-08-24T07:00:01;13.35;;;9.02;;
46084;SDS011;31823;47.032;8.310;2023-08-24T07:02:31;13.85;;;7.85;;
46084;SDS011;31823;47.032;8.310;2023-08-24T07:04:57;14.18;;;8.20;;
46084;SDS011;31823;47.032;8.310;2023-08-24T07:07:23;12.50;;;8.88;;
46084;SDS011;31823;47.032;8.310;2023-08-24T07:09:48;16.10;;;8.82;;
46084;SDS011;31823;47.032;8.310;2023-08-24T07:12:14;14.80;;;8.70;;
46084;SDS011;31823;47.032;8.310;2023-08-24T07:14:39;8.98;;;7.65;;
46084;SDS011;31823;47.032;8.310;2023-08-24T07:17:05;13.60;;;8.38;;
46084;SDS011;31823;47.032;8.310;2023-08-24T07:19:31;11.57;;;8.38;;
46084;SDS011;31823;47.032;8.310;2023-08-24T07:21:56;11.80;;;7.95;;
46084;SDS011;31823;47.032;8.310;2023-08-24T07:24:22;16.63;;;8.90;;
46084;SDS011;31823;47.032;8.310;2023-08-24T07:26:52;12.57;;;8.02;;
46084;SDS011;31823;47.032;8.310;2023-08-24T07:29:18;13.32;;;7.68;;
46084;SDS011;31823;47.032;8.310;2023-08-24T07:31:44;13.90;;;8.30;;
46084;SDS011;31823;47.032;8.310;2023-08-24T07:34:10;10.75;;;8.02;;
46084;SDS011;31823;47.032;8.310;2023-08-24T07:36:35;12.32;;;7.90;;
46084;SDS011;31823;47.032;8.310;2023-08-24T07:39:01;12.65;;;8.85;;
46084;SDS011;31823;47.032;8.310;2023-08-24T07:41:27;12.00;;;7.85;;
46084;SDS011;31823;47.032;8.310;2023-08-24T07:43:52;13.20;;;8.25;;
46084;SDS011;31823;47.032;8.310;2023-08-24T07:46:18;14.77;;;8.95;;
46084;SDS011;31823;47.032;8.310;2023-08-24T07:48:43;12.13;;;8.73;;
46084;SDS011;31823;47.032;8.310;2023-08-24T07:51:09;13.45;;;8.13;;
46084;SDS011;31823;47.032;8.310;2023-08-24T07:53:34;10.13;;;8.27;;
46084;SDS011;31823;47.032;8.310;2023-08-24T07:56:00;10.55;;;8.18;;
46084;SDS011;31823;47.032;8.310;2023-08-24T07:58:27;12.82;;;8.65;;
46084;SDS011;31823;47.032;8.310;2023-08-24T08:00:52;14.15;;;9.40;;
46084;SDS011;31823;47.032;8.310;2023-08-24T08:03:18;12.85;;;8.50;;
46084;SDS011;31823;47.032;8.310;2023-08-24T08:05:45;14.45;;;8.52;;
46084;SDS011;31823;47.032;8.310;2023-08-24T08:08:12;17.55;;;9.45;;
46084;SDS011;31823;47.032;8.310;2023-08-24T08:10:39;13.75;;;9.30;;
46084;SDS011;31823;47.032;8.310;2023-08-24T08:13:05;13.00;;;7.82;;
46084;SDS011;31823;47.032;8.310;2023-08-24T08:15:31;12.65;;;8.25;;
46084;SDS011;31823;47.032;8.310;2023-08-24T08:17:56;14.55;;;8.30;;
46084;SDS011;31823;47.032;8.310;2023-08-24T08:20:22;12.60;;;8.05;;
46084;SDS011;31823;47.032;8.310;2023-08-24T08:22:48;17.38;;;9.60;;
46084;SDS011;31823;47.032;8.310;2023-08-24T08:25:13;13.48;;;8.35;;
46084;SDS011;31823;47.032;8.310;2023-08-24T08:27:39;12.50;;;9.80;;
46084;SDS011;31823;47.032;8.310;2023-08-24T08:30:05;12.45;;;9.13;;
46084;SDS011;31823;47.032;8.310;2023-08-24T08:32:32;17.15;;;8.85;;
46084;SDS011;31823;47.032;8.310;2023-08-24T08:34:57;11.43;;;9.13;;
46084;SDS011;31823;47.032;8.310;2023-08-24T08:37:25;14.95;;;9.77;;
46084;SDS011;31823;47.032;8.310;2023-08-24T08:39:50;14.63;;;8.65;;
46084;SDS011;31823;47.032;8.310;2023-08-24T08:42:16;15.15;;;9.77;;
46084;SDS011;31823;47.032;8.310;2023-08-24T08:44:42;11.23;;;8.90;;
46084;SDS011;31823;47.032;8.310;2023-08-24T08:47:10;13.23;;;8.50;;
46084;SDS011;31823;47.032;8.310;2023-08-24T08:49:37;10.45;;;8.63;;
46084;SDS011;31823;47.032;8.310;2023-08-24T08:52:04;18.52;;;8.93;;
46084;SDS011;31823;47.032;8.310;2023-08-24T08:54:31;9.73;;;7.63;;
46084;SDS011;31823;47.032;8.310;2023-08-24T08:56:58;13.50;;;7.95;;
46084;SDS011;31823;47.032;8.310;2023-08-24T08:59:24;17.73;;;8.50;;
46084;SDS011;31823;47.032;8.310;2023-08-24T09:01:55;17.60;;;9.70;;
46084;SDS011;31823;47.032;8.310;2023-08-24T09:04:22;14.02;;;8.82;;
46084;SDS011;31823;47.032;8.310;2023-08-24T09:06:49;15.90;;;8.63;;
46084;SDS011;31823;47.032;8.310;2023-08-24T09:09:15;17.05;;;8.18;;
46084;SDS011;31823;47.032;8.310;2023-08-24T09:11:40;14.38;;;8.57;;
46084;SDS011;31823;47.032;8.310;2023-08-24T09:14:07;11.70;;;8.68;;
46084;SDS011;31823;47.032;8.310;2023-08-24T09:16:32;16.08;;;9.23;;
46084;SDS011;31823;47.032;8.310;2023-08-24T09:18:59;15.20;;;7.68;;
46084;SDS011;31823;47.032;8.310;2023-08-24T09:21:29;15.13;;;8.18;;
46084;SDS011;31823;47.032;8.310;2023-08-24T09:23:55;12.20;;;8.75;;
46084;SDS011;31823;47.032;8.310;2023-08-24T09:26:30;15.30;;;7.88;;
46084;SDS011;31823;47.032;8.310;2023-08-24T09:28:57;13.35;;;8.82;;
46084;SDS011;31823;47.032;8.310;2023-08-24T09:31:23;10.25;;;7.28;;
46084;SDS011;31823;47.032;8.310;2023-08-24T09:34:01;15.32;;;7.53;;
46084;SDS011;31823;47.032;8.310;2023-08-24T09:36:27;17.05;;;8.15;;
46084;SDS011;31823;47.032;8.310;2023-08-24T09:38:56;13.63;;;7.63;;
46084;SDS011;31823;47.032;8.310;2023-08-24T09:41:23;16.30;;;7.50;;
46084;SDS011;31823;47.032;8.310;2023-08-24T09:43:49;12.60;;;7.63;;
46084;SDS011;31823;47.032;8.310;2023-08-24T09:46:18;17.25;;;7.82;;
46084;SDS011;31823;47.032;8.310;2023-08-24T09:48:45;15.23;;;7.68;;
46084;SDS011;31823;47.032;8.310;2023-08-24T09:51:17;14.35;;;8.35;;
46084;SDS011;31823;47.032;8.310;2023-08-24T09:53:43;12.27;;;8.43;;
46084;SDS011;31823;47.032;8.310;2023-08-24T09:56:09;14.75;;;8.27;;
46084;SDS011;31823;47.032;8.310;2023-08-24T09:58:36;13.27;;;7.80;;
46084;SDS011;31823;47.032;8.310;2023-08-24T10:01:01;14.70;;;7.43;;
46084;SDS011;31823;47.032;8.310;2023-08-24T10:03:29;15.98;;;7.82;;
46084;SDS011;31823;47.032;8.310;2023-08-24T10:05:57;10.85;;;7.28;;
46084;SDS011;31823;47.032;8.310;2023-08-24T10:08:26;12.43;;;7.68;;
46084;SDS011;31823;47.032;8.310;2023-08-24T10:10:55;14.20;;;7.70;;
46084;SDS011;31823;47.032;8.310;2023-08-24T10:16:08;9.68;;;6.60;;
46084;SDS011;31823;47.032;8.310;2023-08-24T10:18:35;15.60;;;8.90;;
46084;SDS011;31823;47.032;8.310;2023-08-24T10:21:02;18.10;;;9.30;;
46084;SDS011;31823;47.032;8.310;2023-08-24T10:23:29;14.82;;;8.60;;
46084;SDS011;31823;47.032;8.310;2023-08-24T10:25:55;13.40;;;8.60;;
46084;SDS011;31823;47.032;8.310;2023-08-24T10:28:21;17.98;;;8.82;;
46084;SDS011;31823;47.032;8.310;2023-08-24T10:30:50;16.17;;;8.60;;
46084;SDS011;31823;47.032;8.310;2023-08-24T10:33:17;11.80;;;7.70;;
46084;SDS011;31823;47.032;8.310;2023-08-24T10:35:43;15.63;;;8.07;;
46084;SDS011;31823;47.032;8.310;2023-08-24T10:38:24;13.15;;;7.95;;
46084;SDS011;31823;47.032;8.310;2023-08-24T10:41:03;14.32;;;7.63;;
46084;SDS011;31823;47.032;8.310;2023-08-24T10:43:29;16.15;;;7.97;;
46084;SDS011;31823;47.032;8.310;2023-08-24T10:45:55;15.02;;;7.18;;
46084;SDS011;31823;47.032;8.310;2023-08-24T10:48:23;16.58;;;7.95;;
46084;SDS011;31823;47.032;8.310;2023-08-24T10:53:42;16.75;;;8.20;;
46084;SDS011;31823;47.032;8.310;2023-08-24T10:56:10;15.55;;;7.32;;
46084;SDS011;31823;47.032;8.310;2023-08-24T10:58:37;15.75;;;7.32;;
46084;SDS011;31823;47.032;8.310;2023-08-24T11:01:02;11.95;;;6.85;;
46084;SDS011;31823;47.032;8.310;2023-08-24T11:03:31;11.82;;;6.50;;
46084;SDS011;31823;47.032;8.310;2023-08-24T11:05:57;14.20;;;6.43;;
46084;SDS011;31823;47.032;8.310;2023-08-24T11:08:43;11.68;;;7.05;;
46084;SDS011;31823;47.032;8.310;2023-08-24T11:11:21;14.65;;;7.88;;
46084;SDS011;31823;47.032;8.310;2023-08-24T11:17:16;14.40;;;6.72;;
46084;SDS011;31823;47.032;8.310;2023-08-24T11:19:50;19.98;;;7.15;;
46084;SDS011;31823;47.032;8.310;2023-08-24T11:22:20;16.42;;;8.80;;
46084;SDS011;31823;47.032;8.310;2023-08-24T11:24:49;22.98;;;6.45;;
46084;SDS011;31823;47.032;8.310;2023-08-24T11:27:14;16.98;;;6.60;;
46084;SDS011;31823;47.032;8.310;2023-08-24T11:29:41;11.75;;;6.38;;
46084;SDS011;31823;47.032;8.310;2023-08-24T11:32:07;15.70;;;7.32;;
46084;SDS011;31823;47.032;8.310;2023-08-24T11:34:33;16.40;;;7.88;;
46084;SDS011;31823;47.032;8.310;2023-08-24T11:37:00;13.80;;;7.38;;
46084;SDS011;31823;47.032;8.310;2023-08-24T11:39:26;13.93;;;6.43;;
46084;SDS011;31823;47.032;8.310;2023-08-24T11:42:03;15.50;;;7.22;;
46084;SDS011;31823;47.032;8.310;2023-08-24T11:44:30;18.38;;;7.50;;
46084;SDS011;31823;47.032;8.310;2023-08-24T11:47:14;18.25;;;7.55;;
46084;SDS011;31823;47.032;8.310;2023-08-24T11:49:40;16.83;;;6.50;;
46084;SDS011;31823;47.032;8.310;2023-08-24T11:52:06;15.27;;;6.85;;
46084;SDS011;31823;47.032;8.310;2023-08-24T11:54:32;14.68;;;6.32;;
46084;SDS011;31823;47.032;8.310;2023-08-24T11:56:58;15.85;;;7.32;;
46084;SDS011;31823;47.032;8.310;2023-08-24T11:59:23;15.48;;;8.27;;
46084;SDS011;31823;47.032;8.310;2023-08-24T12:01:50;15.93;;;7.50;;
46084;SDS011;31823;47.032;8.310;2023-08-24T12:04:17;19.17;;;7.70;;
46084;SDS011;31823;47.032;8.310;2023-08-24T12:06:43;14.02;;;6.82;;
46084;SDS011;31823;47.032;8.310;2023-08-24T12:09:09;11.95;;;6.43;;
46084;SDS011;31823;47.032;8.310;2023-08-24T12:11:35;13.15;;;6.97;;
46084;SDS011;31823;47.032;8.310;2023-08-24T12:14:02;13.98;;;6.57;;
46084;SDS011;31823;47.032;8.310;2023-08-24T12:16:30;16.23;;;7.32;;
46084;SDS011;31823;47.032;8.310;2023-08-24T12:18:57;13.30;;;7.15;;
46084;SDS011;31823;47.032;8.310;2023-08-24T12:21:25;20.08;;;8.23;;
46084;SDS011;31823;47.032;8.310;2023-08-24T12:23:54;16.00;;;6.80;;
46084;SDS011;31823;47.032;8.310;2023-08-24T12:26:21;14.45;;;7.45;;
46084;SDS011;31823;47.032;8.310;2023-08-24T12:28:50;15.07;;;7.47;;
46084;SDS011;31823;47.032;8.310;2023-08-24T12:31:19;17.73;;;7.28;;
46084;SDS011;31823;47.032;8.310;2023-08-24T12:33:45;15.00;;;7.30;;
46084;SDS011;31823;47.032;8.310;2023-08-24T12:36:22;19.73;;;6.90;;
46084;SDS011;31823;47.032;8.310;2023-08-24T12:38:47;16.80;;;7.10;;
46084;SDS011;31823;47.032;8.310;2023-08-24T12:41:13;15.75;;;6.93;;
46084;SDS011;31823;47.032;8.310;2023-08-24T12:43:38;14.52;;;6.88;;
46084;SDS011;31823;47.032;8.310;2023-08-24T12:46:04;17.85;;;8.73;;
46084;SDS011;31823;47.032;8.310;2023-08-24T12:48:29;13.70;;;6.93;;
46084;SDS011;31823;47.032;8.310;2023-08-24T12:50:55;20.30;;;7.35;;
46084;SDS011;31823;47.032;8.310;2023-08-24T12:53:20;20.55;;;6.53;;
46084;SDS011;31823;47.032;8.310;2023-08-24T12:55:46;13.45;;;6.53;;
46084;SDS011;31823;47.032;8.310;2023-08-24T12:58:11;12.63;;;6.55;;
46084;SDS011;31823;47.032;8.310;2023-08-24T13:00:37;12.15;;;6.47;;
46084;SDS011;31823;47.032;8.310;2023-08-24T13:03:02;19.90;;;7.00;;
46084;SDS011;31823;47.032;8.310;2023-08-24T13:05:28;18.55;;;7.50;;
46084;SDS011;31823;47.032;8.310;2023-08-24T13:07:54;15.73;;;7.22;;
46084;SDS011;31823;47.032;8.310;2023-08-24T13:10:20;21.85;;;7.68;;
46084;SDS011;31823;47.032;8.310;2023-08-24T13:12:45;14.57;;;7.13;;
46084;SDS011;31823;47.032;8.310;2023-08-24T13:15:11;12.27;;;6.78;;
46084;SDS011;31823;47.032;8.310;2023-08-24T13:17:36;18.13;;;7.28;;
46084;SDS011;31823;47.032;8.310;2023-08-24T13:20:02;15.38;;;6.93;;
46084;SDS011;31823;47.032;8.310;2023-08-24T13:22:28;19.35;;;6.97;;
46084;SDS011;31823;47.032;8.310;2023-08-24T13:24:54;14.30;;;6.55;;
46084;SDS011;31823;47.032;8.310;2023-08-24T13:27:19;14.52;;;6.85;;
46084;SDS011;31823;47.032;8.310;2023-08-24T13:29:45;18.50;;;8.05;;
46084;SDS011;31823;47.032;8.310;2023-08-24T13:32:10;16.02;;;6.75;;
46084;SDS011;31823;47.032;8.310;2023-08-24T13:34:36;13.98;;;6.40;;
46084;SDS011;31823;47.032;8.310;2023-08-24T13:37:01;13.20;;;6.45;;
46084;SDS011;31823;47.032;8.310;2023-08-24T13:39:29;12.30;;;6.30;;
46084;SDS011;31823;47.032;8.310;2023-08-24T13:41:55;12.80;;;6.78;;
46084;SDS011;31823;47.032;8.310;2023-08-24T13:44:21;14.18;;;6.35;;
46084;SDS011;31823;47.032;8.310;2023-08-24T13:46:47;14.23;;;6.28;;
46084;SDS011;31823;47.032;8.310;2023-08-24T13:49:13;20.20;;;6.63;;
46084;SDS011;31823;47.032;8.310;2023-08-24T13:51:38;15.88;;;6.63;;
46084;SDS011;31823;47.032;8.310;2023-08-24T13:54:25;15.52;;;7.50;;
46084;SDS011;31823;47.032;8.310;2023-08-24T13:56:51;16.67;;;6.47;;
46084;SDS011;31823;47.032;8.310;2023-08-24T13:59:18;15.55;;;7.15;;
46084;SDS011;31823;47.032;8.310;2023-08-24T14:01:44;15.00;;;6.28;;
46084;SDS011;31823;47.032;8.310;2023-08-24T14:04:10;11.95;;;6.22;;
46084;SDS011;31823;47.032;8.310;2023-08-24T14:06:36;13.23;;;6.15;;
46084;SDS011;31823;47.032;8.310;2023-08-24T14:09:02;17.15;;;6.85;;
46084;SDS011;31823;47.032;8.310;2023-08-24T14:11:30;11.70;;;6.97;;
46084;SDS011;31823;47.032;8.310;2023-08-24T14:13:57;17.75;;;7.38;;
46084;SDS011;31823;47.032;8.310;2023-08-24T14:16:23;13.13;;;6.38;;
46084;SDS011;31823;47.032;8.310;2023-08-24T14:18:49;18.25;;;6.20;;
46084;SDS011;31823;47.032;8.310;2023-08-24T14:21:16;19.27;;;6.20;;
46084;SDS011;31823;47.032;8.310;2023-08-24T14:23:41;17.33;;;7.38;;
46084;SDS011;31823;47.032;8.310;2023-08-24T14:26:07;14.98;;;6.32;;
46084;SDS011;31823;47.032;8.310;2023-08-24T14:28:47;14.07;;;5.75;;
46084;SDS011;31823;47.032;8.310;2023-08-24T14:31:18;12.68;;;6.10;;
46084;SDS011;31823;47.032;8.310;2023-08-24T14:33:43;12.13;;;6.25;;
46084;SDS011;31823;47.032;8.310;2023-08-24T14:36:09;15.07;;;6.90;;
46084;SDS011;31823;47.032;8.310;2023-08-24T14:38:35;16.80;;;5.90;;
46084;SDS011;31823;47.032;8.310;2023-08-24T14:41:03;11.13;;;5.88;;
46084;SDS011;31823;47.032;8.310;2023-08-24T14:43:29;20.33;;;6.63;;
46084;SDS011;31823;47.032;8.310;2023-08-24T14:45:56;18.55;;;6.80;;
46084;SDS011;31823;47.032;8.310;2023-08-24T14:48:22;22.10;;;6.40;;
46084;SDS011;31823;47.032;8.310;2023-08-24T14:50:48;18.83;;;5.63;;